Terminal Aerodrome Forecast
Issued by NWS Charleston, WV

Home | Current Version | Previous Version | Text Only | Print | Product List | Glossary On
Versions: 1 2 3 4 5 6 7 8 9 10 11 12 13 14 15 16 17 18 19 20 21 22 23 24 25 26 27
000
FTUS41 KRLX 180200 AAB
TAFBKW
TAF AMD
KBKW 180214Z 1802/1824 35004KT P6SM BKN012
     FM180400 VRB03KT 5SM BR BKN016
      TEMPO 1808/1811 2SM BR BKN010
     FM181300 VRB03KT P6SM BKN020
     FM181600 35004KT P6SM BKN035
     FM182000 36005KT P6SM SCT035=

USA.gov is the U.S. government's official web portal to all federal, state and local government web resources and services.